Terminal Aerodrome Forecast
Issued by NWS Billings, MT

Home | Current Version | Previous Version | Graphics & Text | Print | Product List | Glossary On
Versions: 1 2 3 4 5 6 7 8 9 10 11 12 13 14 15 16 17 18 19 20 21 22 23 24 25 26 27 28 29 30 31 32
837
FTUS45 KBYZ 242323
TAFMLS
TAF
KMLS 242323Z 2500/2524 02014G20KT P6SM FEW250
     FM250500 04010KT P6SM VCTS FEW120CB BKN150
     FM251200 34014KT P6SM FEW060 BKN150
     FM251800 01015G24KT P6SM FEW060 BKN150=

USA.gov is the U.S. government's official web portal to all federal, state and local government web resources and services.